Monday, October 16, 2017, 8:14 PM EDT
Back to Local

KGON, Groton/new London Airport

Location: Groton, CT, United States Lat: 41.333
Local Time: 8:14 PM EDT ( 0:14 GMT) Lon: -72.05
Time Zone: US/Eastern Elev: 9 ft

Show me the last for .
Show Decoded

2017-10-16 18:56 METAR KGON 162256Z 33009KT 10SM CLR 12/04 A3005 RMK AO2 SLP175 T01170039 =
2017-10-16 17:56 METAR KGON 162156Z 33009G20KT 10SM FEW030 12/04 A3002 RMK AO2 SLP164 T01220044 =
2017-10-16 16:56 METAR KGON 162056Z 33011KT 10SM CLR 13/05 A2999 RMK AO2 SLP154 T01280050 50013 =
2017-10-16 15:56 METAR KGON 161956Z 34010KT 10SM CLR 13/05 A2999 RMK AO2 SLP154 T01280050 =
2017-10-16 14:56 METAR KGON 161856Z 32010KT 10SM FEW033 13/06 A2996 RMK AO2 SLP145 T01330061 =
2017-10-16 13:56 METAR KGON 161756Z 32008G17KT 10SM CLR 13/06 A2995 RMK AO2 SLP140 60000
                 T01330061 10156 20133 58002 =
2017-10-16 12:56 METAR KGON 161656Z 32010KT 10SM CLR 13/06 A2997 RMK AO2 SLP147 T01330056 =
2017-10-16 11:56 METAR KGON 161556Z 34012G16KT 10SM CLR 14/06 A2995 RMK AO2 SLP142 T01390061 $ =
2017-10-16 10:56 METAR KGON 161456Z 33011KT 10SM CLR 14/07 A2995 RMK AO2 SLP142 60000 T01390067
                 51026 $ =
2017-10-16 09:56 METAR KGON 161356Z 32013G18KT 10SM CLR 14/07 A2993 RMK AO2 RAB02E11 SLP136 P0000
                 T01440072 $ =
2017-10-16 08:56 METAR KGON 161256Z 32013KT 10SM FEW085 BKN120 15/08 A2990 RMK AO2 SLP125
                 T01500083 $ =
2017-10-16 07:56 METAR KGON 161156Z 33013KT 10SM OVC110 16/09 A2987 RMK AO2 SLP116 60000
                 T01560089 10211 20156 53030 $ =
2017-10-16 06:56 METAR KGON 161056Z 32010KT 10SM SCT030 BKN050 OVC100 16/11 A2984 RMK AO2
                 RAB12E23 SLP105 P0000 T01610111 $ =
2017-10-16 06:41 METAR KGON 161041Z AUTO 33008KT 10SM SCT021 BKN049 OVC100 16/12 A2983 RMK AO2
                 RAB12E23 P0000 T01610122 $ =
2017-10-16 06:14 METAR KGON 161014Z AUTO 32011KT 10SM -RA BKN018 OVC095 17/13 A2981 RMK AO2 RAB12
                 P0000 T01720133 $ =
2017-10-16 05:56 METAR KGON 160956Z AUTO 33012KT 10SM SCT018 OVC090 18/14 A2981 RMK AO2 SLP093
                 T01780139 $ =
2017-10-16 04:56 METAR KGON 160856Z AUTO 32011G23KT 10SM OVC085 20/14 A2979 RMK AO2 SLP086
                 T02000139 53002 $ =
2017-10-16 04:33 METAR KGON 160833Z AUTO 31011KT 10SM FEW019 SCT027 OVC090 19/16 A2978 RMK AO2
                 T01940161 $ =
2017-10-16 03:56 METAR KGON 160756Z AUTO 29007KT 10SM SCT019 OVC027 21/18 A2977 RMK AO2 SLP079
                 T02060183 $ =
2017-10-16 03:15 METAR KGON 160715Z AUTO 25008KT 9SM FEW010 OVC017 21/19 A2976 RMK AO2 T02060189
                 $ =
2017-10-16 02:56 METAR KGON 160656Z AUTO 24011KT 8SM BKN012 OVC017 21/19 A2976 RMK AO2 SLP077
                 T02060189 $ =
2017-10-16 02:04 METAR KGON 160604Z AUTO 24012KT 8SM OVC012 21/19 A2978 RMK AO2 T02060189 $ =
2017-10-16 01:56 METAR KGON 160556Z AUTO 24011KT 8SM OVC015 21/19 A2978 RMK AO2 SLP084 T02060189
                 10206 20200 55012 $ =
2017-10-16 01:48 METAR KGON 160548Z AUTO 24014G19KT 9SM OVC015 21/19 A2978 RMK AO2 T02060189 $ =
2017-10-16 00:56 METAR KGON 160456Z AUTO 23014G20KT 9SM OVC011 20/18 A2978 RMK AO2 SLP083
                 T02000183 402060183 $ =
2017-10-16 00:08 METAR KGON 160408Z AUTO 23013KT 9SM OVC013 20/18 A2979 RMK AO2 T02000183 $ =
2017-10-15 23:56 METAR KGON 160356Z AUTO 22012KT 9SM BKN015 OVC021 20/18 A2979 RMK AO2 SLP089
                 T02000178 $ =
2017-10-15 22:56 METAR KGON 160256Z AUTO 23013G21KT 10SM OVC017 20/18 A2982 RMK AO2 SLP096
                 T02000178 50001 $ =
2017-10-15 21:56 METAR KGON 160156Z 22016KT 10SM OVC016 20/18 A2982 RMK AO2 SLP096 T02000178 $ =
2017-10-15 20:56 METAR KGON 160056Z 22015KT 9SM BKN008 OVC016 20/18 A2981 RMK AO2 SLP095
                 T02000183 $ =

Support USWX by starting your Amazon purchase here.